Time;durP1;ratioP1;P1;durP2;ratioP2;P2;SDS_P1;SDS_P2;PMS_P1;PMS_P2;Temp;Humidity;BMP_temperature;BMP_pressure;BME280_temperature;BME280_humidity;BME280_pressure;Samples;Min_cycle;Max_cycle;Signal;HPM_P1;HPM_P2
2021/04/28 00:00:36;;;;;;;11.65;5.78;;;;;;;;;;5081247;28;20024;-80
2021/04/28 00:03:04;;;;;;;12.05;5.82;;;;;;;;;;5080033;28;20024;-80
2021/04/28 00:05:30;;;;;;;11.43;5.43;;;;;;;;;;5085012;28;20112;-81
2021/04/28 00:07:56;;;;;;;13.85;6.82;;;;;;;;;;5075024;28;20032;-80
2021/04/28 00:10:33;;;;;;;12.13;6.07;;;;;;;;;;5083649;28;20081;-79
2021/04/28 00:12:59;;;;;;;12.60;6.53;;;;;;;;;;5090335;28;20027;-80
2021/04/28 00:15:27;;;;;;;15.15;7.57;;;;;;;;;;5089486;28;20028;-80
2021/04/28 00:17:53;;;;;;;13.10;6.45;;;;;;;;;;5090421;28;20265;-80
2021/04/28 00:20:21;;;;;;;12.70;7.20;;;;;;;;;;5080444;28;20029;-80
2021/04/28 00:22:47;;;;;;;20.40;9.20;;;;;;;;;;5076442;28;20132;-80
2021/04/28 00:25:14;;;;;;;11.68;6.88;;;;;;;;;;5090231;28;20028;-79
2021/04/28 00:27:41;;;;;;;11.07;7.05;;;;;;;;;;5089169;28;20031;-80
2021/04/28 00:30:08;;;;;;;15.88;7.30;;;;;;;;;;5088819;28;20600;-80
2021/04/28 00:32:34;;;;;;;10.82;7.07;;;;;;;;;;5090382;28;20028;-80
2021/04/28 00:35:01;;;;;;;14.18;7.15;;;;;;;;;;5088500;28;20387;-80
2021/04/28 00:37:27;;;;;;;12.70;7.25;;;;;;;;;;5088083;28;20028;-86
2021/04/28 00:39:53;;;;;;;16.17;7.50;;;;;;;;;;5091646;28;20551;-79
2021/04/28 00:42:19;;;;;;;12.93;7.38;;;;;;;;;;5094247;28;20479;-79
2021/04/28 00:44:46;;;;;;;13.05;8.07;;;;;;;;;;5092234;28;20040;-80
2021/04/28 00:47:12;;;;;;;12.93;7.38;;;;;;;;;;5093199;28;20023;-79
2021/04/28 00:49:38;;;;;;;12.75;7.65;;;;;;;;;;5090474;28;20020;-79
2021/04/28 00:52:05;;;;;;;11.15;7.25;;;;;;;;;;5092285;28;20173;-79
2021/04/28 00:54:31;;;;;;;12.90;6.90;;;;;;;;;;5093020;28;20163;-79
2021/04/28 00:56:58;;;;;;;14.27;7.18;;;;;;;;;;5092084;28;20028;-80
2021/04/28 00:59:25;;;;;;;11.23;6.95;;;;;;;;;;5091894;28;20023;-78
2021/04/28 01:01:51;;;;;;;14.60;7.53;;;;;;;;;;5091681;28;20409;-79
2021/04/28 01:04:18;;;;;;;12.48;7.15;;;;;;;;;;5092628;28;20027;-79
2021/04/28 01:06:44;;;;;;;13.25;7.40;;;;;;;;;;5092370;28;20036;-78
2021/04/28 01:09:12;;;;;;;12.63;7.63;;;;;;;;;;5086727;28;20119;-79
2021/04/28 01:11:39;;;;;;;11.75;7.07;;;;;;;;;;5093156;28;20024;-79
2021/04/28 01:14:06;;;;;;;15.00;7.88;;;;;;;;;;5086487;28;20025;-79
2021/04/28 01:16:32;;;;;;;12.38;7.38;;;;;;;;;;5088823;28;20413;-79
2021/04/28 01:18:58;;;;;;;14.40;7.72;;;;;;;;;;5092282;28;20023;-79
2021/04/28 01:21:25;;;;;;;15.18;8.00;;;;;;;;;;5093449;28;20421;-79
2021/04/28 01:23:51;;;;;;;19.60;7.78;;;;;;;;;;5100263;28;20031;-79
2021/04/28 01:26:19;;;;;;;13.65;7.47;;;;;;;;;;5092100;28;20640;-80
2021/04/28 01:28:45;;;;;;;12.23;7.72;;;;;;;;;;5091731;28;20028;-80
2021/04/28 01:31:13;;;;;;;17.00;8.38;;;;;;;;;;5092263;28;20061;-79
2021/04/28 01:33:40;;;;;;;12.63;8.43;;;;;;;;;;5091013;28;20024;-79
2021/04/28 01:36:09;;;;;;;14.20;8.75;;;;;;;;;;5089410;28;20093;-79
2021/04/28 01:38:39;;;;;;;12.95;7.15;;;;;;;;;;5091407;28;20494;-83
2021/04/28 01:41:05;;;;;;;13.20;7.53;;;;;;;;;;5092126;28;20043;-79
2021/04/28 01:43:32;;;;;;;12.32;7.25;;;;;;;;;;5092525;28;20038;-79
2021/04/28 01:45:58;;;;;;;16.95;8.63;;;;;;;;;;5091280;28;20452;-78
2021/04/28 01:48:24;;;;;;;13.70;8.32;;;;;;;;;;5088352;28;20028;-79
2021/04/28 01:50:52;;;;;;;17.02;7.78;;;;;;;;;;5089570;28;20089;-79
2021/04/28 01:53:22;;;;;;;12.23;7.88;;;;;;;;;;5090347;28;20077;-78
2021/04/28 01:55:50;;;;;;;13.75;6.90;;;;;;;;;;5091734;28;20052;-79
2021/04/28 01:58:18;;;;;;;14.85;7.63;;;;;;;;;;5091598;28;20069;-79
2021/04/28 02:00:44;;;;;;;12.25;7.55;;;;;;;;;;5090637;28;20032;-80
2021/04/28 02:03:10;;;;;;;15.32;7.70;;;;;;;;;;5092832;28;20020;-80
2021/04/28 02:05:36;;;;;;;13.20;7.60;;;;;;;;;;5092402;28;20032;-79
2021/04/28 02:08:03;;;;;;;16.88;9.65;;;;;;;;;;5083608;28;20028;-79
2021/04/28 02:10:29;;;;;;;16.13;7.38;;;;;;;;;;5081112;28;20101;-80
2021/04/28 02:12:55;;;;;;;14.35;7.88;;;;;;;;;;5092126;28;20024;-78
2021/04/28 02:15:22;;;;;;;16.08;8.48;;;;;;;;;;5090309;28;20032;-79
2021/04/28 02:17:55;;;;;;;17.20;8.82;;;;;;;;;;5092433;28;20031;-81
2021/04/28 02:20:22;;;;;;;17.52;9.48;;;;;;;;;;5092422;28;20105;-79
2021/04/28 02:22:48;;;;;;;20.65;9.50;;;;;;;;;;5089424;28;20112;-78
2021/04/28 02:25:15;;;;;;;18.30;9.70;;;;;;;;;;5091680;28;20035;-79
2021/04/28 02:27:42;;;;;;;14.60;9.45;;;;;;;;;;5091173;28;20028;-79
2021/04/28 02:30:09;;;;;;;18.05;10.05;;;;;;;;;;5089227;28;20545;-79
2021/04/28 02:32:35;;;;;;;18.23;10.88;;;;;;;;;;5091331;28;20024;-81
2021/04/28 02:35:01;;;;;;;14.30;9.77;;;;;;;;;;5089931;28;20032;-81
2021/04/28 02:37:28;;;;;;;14.60;9.68;;;;;;;;;;5090655;28;20020;-80
2021/04/28 02:40:02;;;;;;;18.27;10.73;;;;;;;;;;5080920;28;20067;-81
2021/04/28 02:42:28;;;;;;;14.93;10.23;;;;;;;;;;5089938;28;20024;-80
2021/04/28 02:44:55;;;;;;;13.68;9.90;;;;;;;;;;5088743;28;20053;-80
2021/04/28 02:47:23;;;;;;;17.38;8.90;;;;;;;;;;5085561;28;20067;-80
2021/04/28 02:49:49;;;;;;;18.63;10.45;;;;;;;;;;5069486;28;20493;-79
2021/04/28 02:52:15;;;;;;;14.85;10.02;;;;;;;;;;5089174;28;20035;-79
2021/04/28 02:54:41;;;;;;;15.52;9.48;;;;;;;;;;5090747;28;20520;-79
2021/04/28 02:57:07;;;;;;;15.95;9.25;;;;;;;;;;5090259;28;20029;-80
2021/04/28 02:59:34;;;;;;;18.30;9.75;;;;;;;;;;5089675;28;20023;-78
2021/04/28 03:02:00;;;;;;;14.10;8.70;;;;;;;;;;5090564;28;20024;-79
2021/04/28 03:04:26;;;;;;;15.18;8.63;;;;;;;;;;5090372;28;20497;-79
2021/04/28 03:06:52;;;;;;;14.82;9.05;;;;;;;;;;5089897;28;20032;-81
2021/04/28 03:09:18;;;;;;;14.68;8.23;;;;;;;;;;5089441;28;20028;-79
2021/04/28 03:11:45;;;;;;;14.38;8.68;;;;;;;;;;5091429;28;20028;-78
2021/04/28 03:14:11;;;;;;;12.70;8.20;;;;;;;;;;5091006;28;20099;-77
2021/04/28 03:16:37;;;;;;;13.48;8.38;;;;;;;;;;5089508;28;20027;-76
2021/04/28 03:19:05;;;;;;;14.93;8.15;;;;;;;;;;5089789;28;20028;-78
2021/04/28 03:21:33;;;;;;;15.35;8.63;;;;;;;;;;5089269;28;20072;-80
2021/04/28 03:24:00;;;;;;;14.82;8.80;;;;;;;;;;5091205;28;20028;-77
2021/04/28 03:26:26;;;;;;;15.77;9.23;;;;;;;;;;5089281;28;20410;-79
2021/04/28 03:28:52;;;;;;;13.05;8.38;;;;;;;;;;5088974;28;20032;-81
2021/04/28 03:31:18;;;;;;;14.77;8.40;;;;;;;;;;5089297;28;20036;-76
2021/04/28 03:33:45;;;;;;;14.27;9.07;;;;;;;;;;5089041;28;20039;-78
2021/04/28 03:36:11;;;;;;;13.30;8.50;;;;;;;;;;5086816;28;20072;-77
2021/04/28 03:38:37;;;;;;;15.10;8.57;;;;;;;;;;5083352;28;20497;-79
2021/04/28 03:41:03;;;;;;;14.57;8.57;;;;;;;;;;5089625;28;20051;-81
2021/04/28 03:43:29;;;;;;;14.00;8.38;;;;;;;;;;5090111;28;20111;-81
2021/04/28 03:45:55;;;;;;;21.70;8.45;;;;;;;;;;5088316;28;20036;-74
2021/04/28 03:48:21;;;;;;;15.13;8.82;;;;;;;;;;5083899;28;20028;-80
2021/04/28 03:50:47;;;;;;;12.80;8.32;;;;;;;;;;5089385;28;20024;-80
2021/04/28 03:53:13;;;;;;;21.00;8.63;;;;;;;;;;5090084;28;20024;-81
2021/04/28 03:55:40;;;;;;;14.68;8.65;;;;;;;;;;5088757;28;20031;-79
2021/04/28 03:58:06;;;;;;;16.05;8.65;;;;;;;;;;5090845;28;20016;-79
2021/04/28 04:00:32;;;;;;;12.68;8.30;;;;;;;;;;5089099;28;20043;-81
2021/04/28 04:02:58;;;;;;;13.27;8.73;;;;;;;;;;5087887;28;20028;-81
2021/04/28 04:05:24;;;;;;;15.95;8.45;;;;;;;;;;5084761;28;20058;-81
2021/04/28 04:07:51;;;;;;;22.50;9.35;;;;;;;;;;5089900;28;20035;-81
2021/04/28 04:10:17;;;;;;;15.27;9.32;;;;;;;;;;5080278;28;20153;-82
2021/04/28 04:12:43;;;;;;;15.57;9.50;;;;;;;;;;5089501;28;20107;-82
2021/04/28 04:15:09;;;;;;;16.38;9.02;;;;;;;;;;5092796;28;20024;-80
2021/04/28 04:17:36;;;;;;;18.15;9.20;;;;;;;;;;5092797;28;20409;-82
2021/04/28 04:20:02;;;;;;;24.08;9.27;;;;;;;;;;5093654;28;20024;-81
2021/04/28 04:22:28;;;;;;;14.05;8.13;;;;;;;;;;5092905;28;20040;-81
2021/04/28 04:24:55;;;;;;;15.90;9.10;;;;;;;;;;5094514;28;20039;-80
2021/04/28 04:27:21;;;;;;;14.57;9.52;;;;;;;;;;5093963;28;20028;-82
2021/04/28 04:29:47;;;;;;;15.55;9.48;;;;;;;;;;5092717;28;20296;-81
2021/04/28 04:32:13;;;;;;;17.30;9.57;;;;;;;;;;5093419;28;20529;-81
2021/04/28 04:34:39;;;;;;;15.93;10.20;;;;;;;;;;5092419;28;20020;-81
2021/04/28 04:37:05;;;;;;;17.02;10.30;;;;;;;;;;5093276;28;20020;-81
2021/04/28 04:39:31;;;;;;;12.73;8.80;;;;;;;;;;5091394;28;20494;-80
2021/04/28 04:41:57;;;;;;;13.13;8.93;;;;;;;;;;5084385;28;20559;-80
2021/04/28 04:44:23;;;;;;;15.95;9.68;;;;;;;;;;5088669;28;20051;-81
2021/04/28 04:46:49;;;;;;;15.88;9.10;;;;;;;;;;5091444;28;20501;-81
2021/04/28 04:49:15;;;;;;;14.25;9.82;;;;;;;;;;5084108;28;20029;-80
2021/04/28 04:51:41;;;;;;;14.52;8.48;;;;;;;;;;5094222;28;20024;-79
2021/04/28 04:54:08;;;;;;;16.02;9.30;;;;;;;;;;5093718;28;20025;-80
2021/04/28 04:56:34;;;;;;;16.48;9.00;;;;;;;;;;5093235;28;20525;-83
2021/04/28 04:59:00;;;;;;;12.63;8.25;;;;;;;;;;5092289;28;20702;-80
2021/04/28 05:01:26;;;;;;;16.55;7.68;;;;;;;;;;5092810;28;20048;-80
2021/04/28 05:03:53;;;;;;;18.48;9.23;;;;;;;;;;5086757;28;20115;-82
2021/04/28 05:06:21;;;;;;;16.90;8.50;;;;;;;;;;5093058;28;20456;-80
2021/04/28 05:08:47;;;;;;;17.08;8.63;;;;;;;;;;5092056;28;20028;-81
2021/04/28 05:11:14;;;;;;;16.40;7.97;;;;;;;;;;5092915;28;20099;-81
2021/04/28 05:13:40;;;;;;;15.15;7.43;;;;;;;;;;5093499;28;20028;-80
2021/04/28 05:16:06;;;;;;;15.27;7.88;;;;;;;;;;5091455;28;20611;-80
2021/04/28 05:18:32;;;;;;;14.60;8.07;;;;;;;;;;5086411;28;20858;-79
2021/04/28 05:20:58;;;;;;;19.33;8.05;;;;;;;;;;5088520;28;20194;-80
2021/04/28 05:23:24;;;;;;;14.43;9.15;;;;;;;;;;5099457;28;20501;-82
2021/04/28 05:25:50;;;;;;;13.48;7.28;;;;;;;;;;5094709;28;20035;-81
2021/04/28 05:28:16;;;;;;;11.73;7.13;;;;;;;;;;5092970;28;20478;-81
2021/04/28 05:30:42;;;;;;;15.05;7.20;;;;;;;;;;5089720;28;20139;-79
2021/04/28 05:33:08;;;;;;;15.98;8.00;;;;;;;;;;5092311;28;20024;-80
2021/04/28 05:35:35;;;;;;;13.63;7.28;;;;;;;;;;5092197;28;20020;-80
2021/04/28 05:38:01;;;;;;;15.85;7.65;;;;;;;;;;5092111;28;20028;-81
2021/04/28 05:40:27;;;;;;;14.38;7.03;;;;;;;;;;5092209;28;20036;-81
2021/04/28 05:42:53;;;;;;;15.80;8.25;;;;;;;;;;5092624;28;20027;-80
2021/04/28 05:45:19;;;;;;;13.63;7.97;;;;;;;;;;5091811;28;20035;-80
2021/04/28 05:47:45;;;;;;;11.73;7.35;;;;;;;;;;5091637;28;20097;-80
2021/04/28 05:50:12;;;;;;;13.35;7.38;;;;;;;;;;5090179;28;20024;-79
2021/04/28 05:52:38;;;;;;;11.50;6.95;;;;;;;;;;5092027;28;20020;-79
2021/04/28 05:55:05;;;;;;;13.23;8.32;;;;;;;;;;5091354;28;20497;-80
2021/04/28 05:57:35;;;;;;;12.30;6.95;;;;;;;;;;5091580;28;20020;-78
2021/04/28 06:00:06;;;;;;;11.40;7.10;;;;;;;;;;5091823;28;20030;-79
2021/04/28 06:02:32;;;;;;;11.95;6.85;;;;;;;;;;5091977;28;20030;-80
2021/04/28 06:04:58;;;;;;;14.93;7.55;;;;;;;;;;5091844;28;20059;-76
2021/04/28 06:07:24;;;;;;;16.95;7.82;;;;;;;;;;5091724;28;20036;-80
2021/04/28 06:09:50;;;;;;;10.60;7.38;;;;;;;;;;5090528;28;20069;-80
2021/04/28 06:12:16;;;;;;;13.73;8.05;;;;;;;;;;5091588;28;20028;-79
2021/04/28 06:14:42;;;;;;;25.90;9.32;;;;;;;;;;5090041;28;20020;-79
2021/04/28 06:17:11;;;;;;;12.85;7.57;;;;;;;;;;5087608;28;20503;-81
2021/04/28 06:19:37;;;;;;;16.77;8.23;;;;;;;;;;5084685;28;20059;-80
2021/04/28 06:22:03;;;;;;;13.40;7.45;;;;;;;;;;5090607;28;20056;-82
2021/04/28 06:24:29;;;;;;;15.27;7.68;;;;;;;;;;5089954;28;20027;-82
2021/04/28 06:26:55;;;;;;;12.95;8.00;;;;;;;;;;5088836;28;20036;-82
2021/04/28 06:29:21;;;;;;;18.95;8.35;;;;;;;;;;5088596;28;20028;-80
2021/04/28 06:31:47;;;;;;;15.27;8.48;;;;;;;;;;5081125;28;20037;-81
2021/04/28 06:34:13;;;;;;;13.18;7.55;;;;;;;;;;5090333;28;20043;-77
2021/04/28 06:36:39;;;;;;;16.23;8.90;;;;;;;;;;5087442;28;20044;-83
2021/04/28 06:39:06;;;;;;;17.15;8.95;;;;;;;;;;5089483;28;20024;-81
2021/04/28 06:41:32;;;;;;;16.77;8.35;;;;;;;;;;5090244;28;20020;-81
2021/04/28 06:43:58;;;;;;;15.85;9.15;;;;;;;;;;5089729;28;20023;-79
2021/04/28 06:46:24;;;;;;;17.48;9.27;;;;;;;;;;5089845;28;20038;-82
2021/04/28 06:48:50;;;;;;;18.27;9.45;;;;;;;;;;5087422;28;20040;-84
2021/04/28 06:51:16;;;;;;;20.02;9.90;;;;;;;;;;5088201;28;20028;-83
2021/04/28 06:53:43;;;;;;;14.80;8.98;;;;;;;;;;5090814;28;20127;-81
2021/04/28 06:56:09;;;;;;;14.80;9.82;;;;;;;;;;5089611;28;20022;-81
2021/04/28 06:58:35;;;;;;;17.17;9.48;;;;;;;;;;5086899;28;20060;-83
2021/04/28 07:01:01;;;;;;;17.60;10.18;;;;;;;;;;5090113;28;20042;-83
2021/04/28 07:03:27;;;;;;;17.58;9.40;;;;;;;;;;5090633;28;20027;-82
2021/04/28 07:05:53;;;;;;;17.42;10.30;;;;;;;;;;5089664;28;20019;-73
2021/04/28 07:08:19;;;;;;;17.98;10.05;;;;;;;;;;5090429;28;20031;-83
2021/04/28 07:10:45;;;;;;;20.02;10.32;;;;;;;;;;5089657;28;20099;-82
2021/04/28 07:13:11;;;;;;;19.15;10.55;;;;;;;;;;5089494;28;20120;-81
2021/04/28 07:15:38;;;;;;;19.17;11.40;;;;;;;;;;5088654;28;20091;-78
2021/04/28 07:18:04;;;;;;;21.65;11.27;;;;;;;;;;5089579;28;20116;-80
2021/04/28 07:20:30;;;;;;;18.80;11.13;;;;;;;;;;5082562;28;20028;-81
2021/04/28 07:22:56;;;;;;;15.18;9.85;;;;;;;;;;5090211;28;20047;-81
2021/04/28 07:25:22;;;;;;;20.02;10.38;;;;;;;;;;5090225;28;20494;-80
2021/04/28 07:27:48;;;;;;;19.35;10.25;;;;;;;;;;5089062;28;20035;-81
2021/04/28 07:30:16;;;;;;;20.83;10.88;;;;;;;;;;5088619;28;20021;-80
2021/04/28 07:32:42;;;;;;;17.67;10.30;;;;;;;;;;5087564;28;20028;-81
2021/04/28 07:35:09;;;;;;;16.20;11.40;;;;;;;;;;5089517;28;20020;-80
2021/04/28 07:37:35;;;;;;;19.25;10.75;;;;;;;;;;5084735;28;20070;-80
2021/04/28 07:40:02;;;;;;;15.23;10.85;;;;;;;;;;5087485;28;20032;-82
2021/04/28 07:42:28;;;;;;;16.33;10.40;;;;;;;;;;5088616;28;20097;-80
2021/04/28 07:44:54;;;;;;;19.65;10.98;;;;;;;;;;5088661;28;20031;-81
2021/04/28 07:47:20;;;;;;;17.33;11.40;;;;;;;;;;5083776;28;20035;-78
2021/04/28 07:49:46;;;;;;;21.05;11.65;;;;;;;;;;5088200;28;20028;-81
2021/04/28 07:52:12;;;;;;;19.85;10.50;;;;;;;;;;5088891;28;20027;-79
2021/04/28 07:54:38;;;;;;;16.42;10.73;;;;;;;;;;5089736;28;20016;-81
2021/04/28 07:57:04;;;;;;;18.08;9.57;;;;;;;;;;5089223;28;20020;-80
2021/04/28 07:59:31;;;;;;;19.73;10.57;;;;;;;;;;5087792;28;20090;-81
2021/04/28 08:01:57;;;;;;;18.20;10.73;;;;;;;;;;5088534;28;20036;-78
2021/04/28 08:04:23;;;;;;;18.88;10.95;;;;;;;;;;5086934;28;20399;-80
2021/04/28 08:06:49;;;;;;;18.15;12.23;;;;;;;;;;5089068;28;20106;-78
2021/04/28 08:09:15;;;;;;;18.40;11.25;;;;;;;;;;5087807;28;20024;-75
2021/04/28 08:11:41;;;;;;;18.92;11.60;;;;;;;;;;5088748;28;20044;-81
2021/04/28 08:14:08;;;;;;;20.23;11.30;;;;;;;;;;5089142;28;20103;-72
2021/04/28 08:16:34;;;;;;;20.45;11.43;;;;;;;;;;5087300;28;20018;-77
2021/04/28 08:19:00;;;;;;;18.13;11.23;;;;;;;;;;5087042;28;20023;-78
2021/04/28 08:21:26;;;;;;;16.02;10.32;;;;;;;;;;5089020;28;20040;-79
2021/04/28 08:23:52;;;;;;;18.27;10.63;;;;;;;;;;5086121;28;20604;-78
2021/04/28 08:26:18;;;;;;;23.02;10.38;;;;;;;;;;5087791;28;20024;-78
2021/04/28 08:28:46;;;;;;;19.52;10.27;;;;;;;;;;5089142;28;20059;-78
2021/04/28 08:31:13;;;;;;;16.98;11.07;;;;;;;;;;5086653;28;20128;-78
2021/04/28 08:33:40;;;;;;;18.25;11.13;;;;;;;;;;5088838;28;20122;-80
2021/04/28 08:36:07;;;;;;;18.25;10.88;;;;;;;;;;5089212;28;20378;-82
2021/04/28 08:38:33;;;;;;;18.70;12.13;;;;;;;;;;5087814;28;20056;-80
2021/04/28 08:41:00;;;;;;;21.70;11.18;;;;;;;;;;5082536;28;20529;-79
2021/04/28 08:43:27;;;;;;;18.20;13.02;;;;;;;;;;5084990;28;20111;-78
2021/04/28 08:45:54;;;;;;;20.52;11.20;;;;;;;;;;5086976;28;20024;-81
2021/04/28 08:48:20;;;;;;;19.30;12.30;;;;;;;;;;5086616;28;20021;-84
2021/04/28 08:50:47;;;;;;;19.42;11.25;;;;;;;;;;5085860;28;20052;-78
2021/04/28 08:53:14;;;;;;;17.05;11.90;;;;;;;;;;5087888;28;20031;-79
2021/04/28 08:55:40;;;;;;;17.98;11.75;;;;;;;;;;5087374;28;20070;-80
2021/04/28 08:58:07;;;;;;;16.00;10.25;;;;;;;;;;5087511;28;20024;-80
2021/04/28 09:00:34;;;;;;;17.73;10.80;;;;;;;;;;5087406;28;20020;-79
2021/04/28 09:03:01;;;;;;;17.42;10.63;;;;;;;;;;5093222;28;20563;-79
2021/04/28 09:05:27;;;;;;;19.77;13.07;;;;;;;;;;5091831;28;20119;-80
2021/04/28 09:07:53;;;;;;;23.40;11.90;;;;;;;;;;5092409;28;20448;-80
2021/04/28 09:10:24;;;;;;;21.08;13.13;;;;;;;;;;5088173;28;20020;-78
2021/04/28 09:12:52;;;;;;;23.17;14.15;;;;;;;;;;5085242;28;20043;-80
2021/04/28 09:15:30;;;;;;;25.45;15.63;;;;;;;;;;5093064;28;20494;-81
2021/04/28 09:17:56;;;;;;;19.42;13.20;;;;;;;;;;5088979;28;20533;-78
2021/04/28 09:20:32;;;;;;;23.73;13.63;;;;;;;;;;5085257;28;20588;-79
2021/04/28 09:23:18;;;;;;;19.85;12.93;;;;;;;;;;5084767;28;20502;-81
2021/04/28 09:25:44;;;;;;;21.90;12.45;;;;;;;;;;5093819;28;20084;-78
2021/04/28 09:28:20;;;;;;;23.30;14.10;;;;;;;;;;5090691;28;20031;-79
2021/04/28 09:30:46;;;;;;;21.05;13.80;;;;;;;;;;5087952;28;20089;-78
2021/04/28 09:33:12;;;;;;;26.15;13.57;;;;;;;;;;5089751;28;20519;-81
2021/04/28 09:35:38;;;;;;;22.30;13.50;;;;;;;;;;5088595;28;20040;-77
2021/04/28 09:38:04;;;;;;;24.40;14.48;;;;;;;;;;5081977;28;20028;-75
2021/04/28 09:40:40;;;;;;;23.30;14.50;;;;;;;;;;5087295;28;20394;-80
2021/04/28 09:43:06;;;;;;;23.35;14.68;;;;;;;;;;5088925;28;20103;-74
2021/04/28 09:45:49;;;;;;;25.73;14.75;;;;;;;;;;5077474;28;20035;-79
2021/04/28 09:48:18;;;;;;;25.95;14.45;;;;;;;;;;5091572;28;20054;-80
2021/04/28 09:50:44;;;;;;;25.17;15.55;;;;;;;;;;5083880;28;20548;-74
2021/04/28 09:53:21;;;;;;;21.17;13.85;;;;;;;;;;5086767;28;20490;-77
2021/04/28 09:55:47;;;;;;;28.15;14.63;;;;;;;;;;5091751;28;20506;-79
2021/04/28 09:58:13;;;;;;;26.27;15.73;;;;;;;;;;5099080;28;20114;-77
2021/04/28 10:00:40;;;;;;;23.20;14.65;;;;;;;;;;5098195;28;20520;-78
2021/04/28 10:03:10;;;;;;;21.42;13.35;;;;;;;;;;5086522;28;20055;-78
2021/04/28 10:05:36;;;;;;;20.65;13.65;;;;;;;;;;5083820;28;20048;-77
2021/04/28 10:08:09;;;;;;;24.02;14.25;;;;;;;;;;5086422;28;20050;-79
2021/04/28 10:10:36;;;;;;;29.02;14.52;;;;;;;;;;5082989;28;20016;-80
2021/04/28 10:13:03;;;;;;;21.50;15.55;;;;;;;;;;5072913;28;20033;-79
2021/04/28 10:15:29;;;;;;;27.00;17.23;;;;;;;;;;5083084;28;20027;-83
2021/04/28 10:17:56;;;;;;;28.73;15.80;;;;;;;;;;5092948;28;20028;-82
2021/04/28 10:20:22;;;;;;;28.90;17.70;;;;;;;;;;5087078;28;20036;-78
2021/04/28 10:22:50;;;;;;;31.63;18.05;;;;;;;;;;5086310;28;20055;-83
2021/04/28 10:25:18;;;;;;;27.92;17.40;;;;;;;;;;5087562;28;20035;-78
2021/04/28 10:27:45;;;;;;;26.52;15.73;;;;;;;;;;5088762;28;20047;-81
2021/04/28 10:30:14;;;;;;;23.08;14.43;;;;;;;;;;5088872;28;20099;-81
2021/04/28 10:32:42;;;;;;;27.38;15.57;;;;;;;;;;5088187;28;20032;-79
2021/04/28 10:35:10;;;;;;;26.92;16.02;;;;;;;;;;5085414;28;20432;-80
2021/04/28 10:37:37;;;;;;;29.85;16.48;;;;;;;;;;5087598;28;20024;-82
2021/04/28 10:40:10;;;;;;;27.58;16.92;;;;;;;;;;5086775;28;20506;-78
2021/04/28 10:42:37;;;;;;;20.40;14.68;;;;;;;;;;5080477;28;20064;-80
2021/04/28 10:45:05;;;;;;;21.27;16.02;;;;;;;;;;5086717;28;20024;-78
2021/04/28 10:47:35;;;;;;;28.63;16.45;;;;;;;;;;5090628;28;20032;-80
2021/04/28 10:50:15;;;;;;;26.42;14.77;;;;;;;;;;5087207;28;20031;-79
2021/04/28 10:52:45;;;;;;;27.60;16.35;;;;;;;;;;5090994;28;21787;-80
2021/04/28 10:55:30;;;;;;;23.00;15.40;;;;;;;;;;5097054;28;20020;-81
2021/04/28 10:57:56;;;;;;;24.45;16.17;;;;;;;;;;5097933;28;20028;-74
2021/04/28 11:00:22;;;;;;;24.27;16.58;;;;;;;;;;5081973;28;20023;-70
2021/04/28 11:02:49;;;;;;;28.52;17.25;;;;;;;;;;5093914;28;20512;-78
2021/04/28 11:05:29;;;;;;;23.40;16.10;;;;;;;;;;5100521;28;20019;-75
2021/04/28 11:07:56;;;;;;;25.08;15.95;;;;;;;;;;5099736;28;20097;-80
2021/04/28 11:10:35;;;;;;;24.13;14.88;;;;;;;;;;5084905;28;20024;-82
2021/04/28 11:13:06;;;;;;;27.48;15.95;;;;;;;;;;5086863;28;20016;-79
2021/04/28 11:15:44;;;;;;;24.45;14.45;;;;;;;;;;5088853;28;20107;-81
2021/04/28 11:18:29;;;;;;;30.85;14.57;;;;;;;;;;5088515;28;20024;-80
2021/04/28 11:21:11;;;;;;;28.02;13.75;;;;;;;;;;5082876;28;20309;-79
2021/04/28 11:23:37;;;;;;;;;;;;;;;;;;5084199;28;20147;-79
2021/04/28 11:26:22;;;;;;;23.98;13.32;;;;;;;;;;5083510;28;20433;-81
2021/04/28 11:28:55;;;;;;;29.70;13.32;;;;;;;;;;5080059;28;20308;-83
2021/04/28 11:31:38;;;;;;;29.58;12.55;;;;;;;;;;5087926;28;20024;-77
2021/04/28 11:34:37;;;;;;;22.27;12.95;;;;;;;;;;5084890;28;20020;-77
2021/04/28 11:37:04;;;;;;;25.05;12.25;;;;;;;;;;5044735;28;20032;-78
2021/04/28 11:39:36;;;;;;;19.08;13.40;;;;;;;;;;5086590;28;20048;-79
2021/04/28 11:42:02;;;;;;;;;;;;;;;;;;5087651;28;20024;-75
2021/04/28 11:44:28;;;;;;;22.63;11.75;;;;;;;;;;5087752;28;19998;-79
2021/04/28 11:46:54;;;;;;;20.27;10.68;;;;;;;;;;5074915;28;20029;-78
2021/04/28 11:49:20;;;;;;;22.80;11.60;;;;;;;;;;5076532;28;20024;-81
2021/04/28 11:51:57;;;;;;;29.30;13.52;;;;;;;;;;5082843;28;20043;-79
2021/04/28 11:54:23;;;;;;;32.85;12.07;;;;;;;;;;5084888;28;20032;-79
2021/04/28 11:56:49;;;;;;;25.35;13.73;;;;;;;;;;5090049;28;20532;-79
2021/04/28 11:59:28;;;;;;;21.30;11.70;;;;;;;;;;5088151;28;20079;-78
2021/04/28 12:02:01;;;;;;;20.52;12.13;;;;;;;;;;5076328;28;20020;-77
2021/04/28 12:04:27;;;;;;;20.42;13.48;;;;;;;;;;5089006;28;20032;-72
2021/04/28 12:06:55;;;;;;;23.65;14.48;;;;;;;;;;5089920;28;20036;-81
2021/04/28 12:09:30;;;;;;;25.00;13.05;;;;;;;;;;5085541;28;20115;-81
2021/04/28 12:12:08;;;;;;;26.80;14.38;;;;;;;;;;5081051;28;20020;-79
2021/04/28 12:14:35;;;;;;;27.55;13.82;;;;;;;;;;5086692;28;20069;-79
2021/04/28 12:17:01;;;;;;;22.98;13.77;;;;;;;;;;5083809;28;20311;-80
2021/04/28 12:19:27;;;;;;;22.55;12.93;;;;;;;;;;5077645;28;20048;-80
2021/04/28 12:22:07;;;;;;;22.90;13.38;;;;;;;;;;5090148;28;20497;-78
2021/04/28 12:24:40;;;;;;;28.27;13.52;;;;;;;;;;5085343;28;20020;-76
2021/04/28 12:27:06;;;;;;;26.88;15.85;;;;;;;;;;5084679;28;20481;-78
2021/04/28 12:29:33;;;;;;;24.73;14.40;;;;;;;;;;5084817;28;20047;-72
2021/04/28 12:31:59;;;;;;;26.25;13.05;;;;;;;;;;5086282;28;20391;-76
2021/04/28 12:34:26;;;;;;;23.95;13.95;;;;;;;;;;5087888;28;20107;-77
2021/04/28 12:36:52;;;;;;;21.77;13.85;;;;;;;;;;5091574;28;20031;-77
2021/04/28 12:39:28;;;;;;;21.38;12.45;;;;;;;;;;5089049;28;20032;-79
2021/04/28 12:41:54;;;;;;;21.58;11.95;;;;;;;;;;5081336;28;20039;-80
2021/04/28 12:44:21;;;;;;;21.63;13.23;;;;;;;;;;5093410;28;20024;-76
2021/04/28 12:46:48;;;;;;;19.95;12.45;;;;;;;;;;5091062;28;20043;-79
2021/04/28 12:49:14;;;;;;;23.83;12.15;;;;;;;;;;5082123;28;20078;-76
2021/04/28 12:51:51;;;;;;;24.27;11.93;;;;;;;;;;5086481;28;20553;-77
2021/04/28 12:54:27;;;;;;;26.20;12.15;;;;;;;;;;5080639;28;20023;-77
2021/04/28 12:56:53;;;;;;;22.80;12.68;;;;;;;;;;5088672;28;20077;-76
2021/04/28 12:59:21;;;;;;;25.85;14.43;;;;;;;;;;5085391;28;20035;-77
2021/04/28 13:01:57;;;;;;;22.98;10.80;;;;;;;;;;5088737;28;20036;-80
2021/04/28 13:04:24;;;;;;;20.80;11.98;;;;;;;;;;5089457;28;20039;-77
2021/04/28 13:07:06;;;;;;;21.35;11.93;;;;;;;;;;5088269;28;20498;-79
2021/04/28 13:09:32;;;;;;;27.58;12.63;;;;;;;;;;5080725;28;20067;-78
2021/04/28 13:11:58;;;;;;;22.40;11.68;;;;;;;;;;5088487;28;20070;-78
2021/04/28 13:14:24;;;;;;;26.65;13.25;;;;;;;;;;5085605;28;20063;-76
2021/04/28 13:16:54;;;;;;;24.83;11.88;;;;;;;;;;5079026;28;20097;-79
2021/04/28 13:19:27;;;;;;;21.77;11.35;;;;;;;;;;5082942;28;20024;-77
2021/04/28 13:21:53;;;;;;;21.08;12.55;;;;;;;;;;5090663;28;20051;-79
2021/04/28 13:24:22;;;;;;;22.88;12.82;;;;;;;;;;5091206;28;20024;-76
2021/04/28 13:27:19;;;;;;;23.10;12.60;;;;;;;;;;5081874;28;20073;-76
2021/04/28 13:30:12;;;;;;;27.55;11.43;;;;;;;;;;5063035;28;20044;-84
2021/04/28 13:32:53;;;;;;;22.20;11.90;;;;;;;;;;5087178;28;20020;-77
2021/04/28 13:35:32;;;;;;;23.58;12.55;;;;;;;;;;5090366;28;20028;-78
2021/04/28 13:37:58;;;;;;;23.95;11.80;;;;;;;;;;5087753;28;20139;-77
2021/04/28 13:40:27;;;;;;;21.40;10.55;;;;;;;;;;5089564;28;20040;-75
2021/04/28 13:42:56;;;;;;;30.10;12.48;;;;;;;;;;5096260;28;20055;-74
2021/04/28 13:45:23;;;;;;;22.25;10.52;;;;;;;;;;5090339;28;20040;-74
2021/04/28 13:47:49;;;;;;;22.77;11.30;;;;;;;;;;5091124;28;20028;-76
2021/04/28 13:50:15;;;;;;;20.75;12.02;;;;;;;;;;5087738;28;20020;-73
2021/04/28 13:52:41;;;;;;;26.90;12.32;;;;;;;;;;5088188;28;20226;-76
2021/04/28 13:55:08;;;;;;;24.98;11.85;;;;;;;;;;5092551;28;20016;-78
2021/04/28 13:57:35;;;;;;;24.60;12.05;;;;;;;;;;5091573;28;20047;-81
2021/04/28 14:00:01;;;;;;;21.88;12.68;;;;;;;;;;5097667;28;20173;-78
2021/04/28 14:02:29;;;;;;;20.38;11.55;;;;;;;;;;5090684;28;20042;-75
2021/04/28 14:04:55;;;;;;;25.52;13.95;;;;;;;;;;5091799;28;20031;-78
2021/04/28 14:07:22;;;;;;;20.65;12.45;;;;;;;;;;5090029;28;20535;-78
2021/04/28 14:09:48;;;;;;;26.42;13.45;;;;;;;;;;5089384;28;20307;-78
2021/04/28 14:12:14;;;;;;;22.25;11.73;;;;;;;;;;5089527;28;20421;-79
2021/04/28 14:14:40;;;;;;;25.33;12.68;;;;;;;;;;5089121;28;20405;-71
2021/04/28 14:17:07;;;;;;;23.85;12.65;;;;;;;;;;5090789;28;20024;-77
2021/04/28 14:19:33;;;;;;;23.13;12.88;;;;;;;;;;5085563;28;20097;-78
2021/04/28 14:21:59;;;;;;;27.38;14.18;;;;;;;;;;5090748;28;20036;-77
2021/04/28 14:24:25;;;;;;;29.98;13.50;;;;;;;;;;5089164;28;20161;-76
2021/04/28 14:26:52;;;;;;;25.23;14.07;;;;;;;;;;5088306;28;20051;-77